Time;durP1;ratioP1;P1;durP2;ratioP2;P2;SDS_P1;SDS_P2;PMS_P1;PMS_P2;Temp;Humidity;BMP_temperature;BMP_pressure;BME280_temperature;BME280_humidity;BME280_pressure;Samples;Min_cycle;Max_cycle;Signal;HPM_P1;HPM_P2
2022/03/24 00:01:47;;;;;;;25.55;20.50;;;;;;;;;;5089384;28;20043;-68
2022/03/24 00:04:13;;;;;;;23.25;20.48;;;;;;;;;;5070913;28;20180;-69
2022/03/24 00:06:40;;;;;;;23.08;20.58;;;;;;;;;;5089217;28;20048;-69
2022/03/24 00:09:06;;;;;;;24.60;21.70;;;;;;;;;;5089214;28;20147;-69
2022/03/24 00:11:32;;;;;;;23.15;20.27;;;;;;;;;;5088645;28;20105;-69
2022/03/24 00:13:58;;;;;;;28.60;22.35;;;;;;;;;;5088522;28;20054;-68
2022/03/24 00:16:26;;;;;;;32.40;22.10;;;;;;;;;;5071042;28;20055;-68
2022/03/24 00:18:52;;;;;;;30.15;21.67;;;;;;;;;;5089143;28;20051;-71
2022/03/24 00:21:18;;;;;;;22.88;20.48;;;;;;;;;;5070875;28;20109;-71
2022/03/24 00:23:44;;;;;;;26.33;20.40;;;;;;;;;;5089177;28;20097;-68
2022/03/24 00:26:11;;;;;;;24.42;19.77;;;;;;;;;;5070280;28;20048;-68
2022/03/24 00:28:37;;;;;;;24.50;21.08;;;;;;;;;;5089027;28;20047;-67
2022/03/24 00:31:03;;;;;;;23.27;20.77;;;;;;;;;;5070653;28;20050;-68
2022/03/24 00:33:31;;;;;;;23.73;20.80;;;;;;;;;;5070413;28;20107;-68
2022/03/24 00:35:57;;;;;;;23.42;21.02;;;;;;;;;;5088752;28;20075;-68
2022/03/24 00:38:23;;;;;;;24.10;21.60;;;;;;;;;;5088913;28;20044;-69
2022/03/24 00:40:49;;;;;;;24.08;21.48;;;;;;;;;;5088755;28;20036;-68
2022/03/24 00:43:17;;;;;;;25.52;22.88;;;;;;;;;;5088874;28;20074;-68
2022/03/24 00:45:43;;;;;;;24.30;21.83;;;;;;;;;;5088615;28;20055;-68
2022/03/24 00:48:09;;;;;;;26.25;22.10;;;;;;;;;;5088253;28;20048;-68
2022/03/24 00:50:35;;;;;;;24.70;21.80;;;;;;;;;;5070556;28;20093;-68
2022/03/24 00:53:02;;;;;;;24.80;22.15;;;;;;;;;;5070558;28;20040;-68
2022/03/24 00:55:28;;;;;;;24.85;22.25;;;;;;;;;;5070761;28;20104;-68
2022/03/24 00:57:55;;;;;;;25.42;22.73;;;;;;;;;;5070360;28;20127;-67
2022/03/24 01:00:22;;;;;;;26.15;22.48;;;;;;;;;;5070306;28;20055;-67
2022/03/24 01:02:49;;;;;;;25.55;22.73;;;;;;;;;;5070631;28;20055;-67
2022/03/24 01:05:16;;;;;;;25.83;23.02;;;;;;;;;;5053822;28;20540;-68
2022/03/24 01:07:45;;;;;;;25.98;23.15;;;;;;;;;;5069796;28;20063;-68
2022/03/24 01:10:12;;;;;;;25.73;22.52;;;;;;;;;;5070169;28;20104;-68
2022/03/24 01:12:42;;;;;;;27.73;23.45;;;;;;;;;;5088687;28;20040;-67
2022/03/24 01:15:12;;;;;;;26.20;23.40;;;;;;;;;;5088417;28;20394;-67
2022/03/24 01:17:38;;;;;;;26.85;23.95;;;;;;;;;;5088472;28;20048;-68
2022/03/24 01:20:05;;;;;;;26.05;23.23;;;;;;;;;;5069883;28;20048;-67
2022/03/24 01:22:31;;;;;;;27.38;24.42;;;;;;;;;;5053752;28;20131;-67
2022/03/24 01:24:58;;;;;;;27.05;24.25;;;;;;;;;;5073391;28;20131;-67
2022/03/24 01:27:26;;;;;;;27.65;24.77;;;;;;;;;;5092315;28;20052;-67
2022/03/24 01:30:01;;;;;;;26.60;23.75;;;;;;;;;;5091679;28;20056;-68
2022/03/24 01:32:28;;;;;;;27.35;24.42;;;;;;;;;;5073997;28;20079;-67
2022/03/24 01:34:54;;;;;;;26.42;23.63;;;;;;;;;;5073719;28;20087;-67
2022/03/24 01:37:22;;;;;;;26.65;23.88;;;;;;;;;;5092186;28;20131;-67
2022/03/24 01:39:48;;;;;;;27.23;24.40;;;;;;;;;;5091402;28;20048;-67
2022/03/24 01:42:16;;;;;;;28.02;25.02;;;;;;;;;;5073890;28;20121;-67
2022/03/24 01:44:42;;;;;;;27.33;24.40;;;;;;;;;;5073604;28;20048;-67
2022/03/24 01:47:09;;;;;;;28.98;25.88;;;;;;;;;;5073285;28;20040;-67
2022/03/24 01:49:37;;;;;;;28.73;25.77;;;;;;;;;;5091704;28;20490;-67
2022/03/24 01:52:07;;;;;;;27.33;24.50;;;;;;;;;;5072982;28;20048;-67
2022/03/24 01:54:33;;;;;;;28.02;25.08;;;;;;;;;;5073850;28;20101;-67
2022/03/24 01:56:59;;;;;;;29.20;26.10;;;;;;;;;;5091444;28;20040;-67
2022/03/24 01:59:26;;;;;;;29.25;26.20;;;;;;;;;;5091352;28;20138;-67
2022/03/24 02:01:52;;;;;;;28.25;25.25;;;;;;;;;;5073807;28;20036;-67
2022/03/24 02:04:22;;;;;;;29.65;26.42;;;;;;;;;;5091893;28;20051;-68
2022/03/24 02:06:48;;;;;;;29.13;26.10;;;;;;;;;;5073554;28;20088;-68
2022/03/24 02:09:15;;;;;;;30.23;26.92;;;;;;;;;;5091331;28;20071;-68
2022/03/24 02:11:41;;;;;;;28.90;26.00;;;;;;;;;;5091584;28;20507;-69
2022/03/24 02:14:08;;;;;;;30.75;26.95;;;;;;;;;;5073327;28;20059;-67
2022/03/24 02:16:35;;;;;;;28.73;25.77;;;;;;;;;;5073479;28;20124;-67
2022/03/24 02:19:12;;;;;;;29.85;26.77;;;;;;;;;;5073622;28;20044;-67
2022/03/24 02:21:39;;;;;;;29.92;26.77;;;;;;;;;;5091155;28;20406;-67
2022/03/24 02:24:05;;;;;;;31.35;28.05;;;;;;;;;;5091261;28;20044;-67
2022/03/24 02:26:31;;;;;;;29.80;26.63;;;;;;;;;;5091430;28;20117;-67
2022/03/24 02:28:57;;;;;;;30.70;27.38;;;;;;;;;;5091114;28;20147;-67
2022/03/24 02:31:24;;;;;;;31.25;26.90;;;;;;;;;;5090665;28;20098;-68
2022/03/24 02:34:37;;;;;;;30.13;26.90;;;;;;;;;;5090729;28;20056;-67
2022/03/24 02:36:40;;;;;;;29.42;26.33;;;;;;;;;;5071747;28;20044;-67
2022/03/24 02:39:06;;;;;;;32.53;29.13;;;;;;;;;;5072740;28;20051;-67
2022/03/24 02:41:32;;;;;;;34.03;28.65;;;;;;;;;;5072962;28;20081;-68
2022/03/24 02:43:59;;;;;;;31.10;27.83;;;;;;;;;;5090400;28;20055;-68
2022/03/24 02:46:26;;;;;;;31.67;28.05;;;;;;;;;;5091038;28;20051;-68
2022/03/24 02:48:52;;;;;;;31.02;27.77;;;;;;;;;;5056331;28;20516;-68
2022/03/24 02:51:18;;;;;;;32.22;28.80;;;;;;;;;;5090824;28;20043;-68
2022/03/24 02:53:44;;;;;;;31.42;27.83;;;;;;;;;;5090910;28;20180;-68
2022/03/24 02:56:10;;;;;;;32.50;29.10;;;;;;;;;;5071904;28;20527;-69
2022/03/24 02:58:36;;;;;;;32.97;29.48;;;;;;;;;;5072514;28;20236;-68
2022/03/24 03:01:02;;;;;;;32.35;29.02;;;;;;;;;;5090688;28;20048;-68
2022/03/24 03:03:28;;;;;;;31.73;28.33;;;;;;;;;;5072496;28;20044;-68
2022/03/24 03:05:54;;;;;;;32.53;28.98;;;;;;;;;;5090585;28;20100;-68
2022/03/24 03:08:20;;;;;;;33.28;29.73;;;;;;;;;;5090140;28;20052;-68
2022/03/24 03:10:46;;;;;;;33.00;28.58;;;;;;;;;;5072366;28;20048;-68
2022/03/24 03:13:12;;;;;;;31.45;28.08;;;;;;;;;;5090910;28;20056;-68
2022/03/24 03:15:38;;;;;;;33.58;30.08;;;;;;;;;;5071843;28;20059;-68
2022/03/24 03:18:04;;;;;;;35.00;31.20;;;;;;;;;;5089586;28;20120;-68
2022/03/24 03:20:30;;;;;;;34.35;30.25;;;;;;;;;;5072136;28;20043;-69
2022/03/24 03:22:56;;;;;;;34.67;30.52;;;;;;;;;;5055653;28;20056;-68
2022/03/24 03:25:22;;;;;;;33.22;29.63;;;;;;;;;;5072164;28;20044;-68
2022/03/24 03:27:49;;;;;;;34.25;30.35;;;;;;;;;;5090156;28;20044;-68
2022/03/24 03:30:15;;;;;;;33.15;29.55;;;;;;;;;;5071301;28;20055;-68
2022/03/24 03:32:42;;;;;;;33.53;30.05;;;;;;;;;;5090154;28;20520;-69
2022/03/24 03:35:09;;;;;;;33.88;30.30;;;;;;;;;;5071604;28;20166;-68
2022/03/24 03:37:35;;;;;;;33.20;29.70;;;;;;;;;;5071897;28;20059;-68
2022/03/24 03:40:01;;;;;;;34.45;30.85;;;;;;;;;;5090101;28;20036;-69
2022/03/24 03:42:27;;;;;;;33.65;30.08;;;;;;;;;;5089694;28;20051;-69
2022/03/24 03:44:53;;;;;;;34.40;30.80;;;;;;;;;;5071335;28;20123;-69
2022/03/24 03:47:19;;;;;;;33.67;30.15;;;;;;;;;;5071219;28;20116;-69
2022/03/24 03:49:45;;;;;;;34.97;30.95;;;;;;;;;;5090121;28;20044;-69
2022/03/24 03:52:12;;;;;;;37.20;32.50;;;;;;;;;;5089588;28;20557;-69
2022/03/24 03:54:38;;;;;;;33.50;30.00;;;;;;;;;;5089449;28;20056;-69
2022/03/24 03:57:05;;;;;;;33.42;29.83;;;;;;;;;;5088944;28;20251;-69
2022/03/24 03:59:31;;;;;;;33.53;30.05;;;;;;;;;;5089586;28;20048;-70
2022/03/24 04:01:58;;;;;;;35.58;31.83;;;;;;;;;;5089599;28;20173;-69
2022/03/24 04:04:24;;;;;;;34.00;30.38;;;;;;;;;;5071672;28;20056;-69
2022/03/24 04:06:50;;;;;;;35.35;31.45;;;;;;;;;;5089695;28;20358;-69
2022/03/24 04:09:16;;;;;;;34.75;31.05;;;;;;;;;;5089023;28;20048;-69
2022/03/24 04:11:42;;;;;;;33.22;29.67;;;;;;;;;;5089528;28;20051;-69
2022/03/24 04:14:08;;;;;;;34.00;30.42;;;;;;;;;;5089070;28;20040;-69
2022/03/24 04:16:34;;;;;;;35.47;31.65;;;;;;;;;;5088990;28;20055;-69
2022/03/24 04:19:00;;;;;;;35.08;31.38;;;;;;;;;;5088614;28;20046;-69
2022/03/24 04:21:26;;;;;;;35.33;31.73;;;;;;;;;;5089311;28;20082;-69
2022/03/24 04:23:52;;;;;;;34.28;30.65;;;;;;;;;;5089021;28;20370;-69
2022/03/24 04:26:19;;;;;;;35.00;31.20;;;;;;;;;;5088975;28;20154;-70
2022/03/24 04:28:45;;;;;;;35.38;31.58;;;;;;;;;;5071109;28;20050;-71
2022/03/24 04:31:11;;;;;;;34.63;29.25;;;;;;;;;;5088713;28;20086;-67
2022/03/24 04:33:37;;;;;;;33.35;29.10;;;;;;;;;;5070930;28;20101;-68
2022/03/24 04:36:08;;;;;;;36.47;29.08;;;;;;;;;;5070605;28;20062;-67
2022/03/24 04:38:34;;;;;;;33.22;29.52;;;;;;;;;;5088909;28;20052;-67
2022/03/24 04:41:00;;;;;;;33.55;29.95;;;;;;;;;;5088803;28;20052;-67
2022/03/24 04:43:27;;;;;;;32.15;28.63;;;;;;;;;;5088096;28;20047;-68
2022/03/24 04:45:54;;;;;;;34.40;29.80;;;;;;;;;;5089039;28;20497;-68
2022/03/24 04:48:21;;;;;;;33.17;28.63;;;;;;;;;;5088636;28;20051;-68
2022/03/24 04:50:47;;;;;;;34.60;29.25;;;;;;;;;;5088793;28;20048;-68
2022/03/24 04:53:15;;;;;;;34.65;30.35;;;;;;;;;;5088618;28;20061;-69
2022/03/24 04:55:42;;;;;;;33.80;30.15;;;;;;;;;;5070455;28;20105;-69
2022/03/24 04:58:08;;;;;;;33.78;30.02;;;;;;;;;;5052992;28;20044;-69
2022/03/24 05:00:35;;;;;;;35.95;30.52;;;;;;;;;;5088403;28;20788;-69
2022/03/24 05:03:01;;;;;;;34.10;29.35;;;;;;;;;;5088430;28;20048;-68
2022/03/24 05:05:27;;;;;;;34.70;31.02;;;;;;;;;;5088127;28;20965;-69
2022/03/24 05:07:54;;;;;;;32.65;29.15;;;;;;;;;;5088119;28;20044;-68
2022/03/24 05:10:20;;;;;;;33.90;30.15;;;;;;;;;;5069444;28;20066;-68
2022/03/24 05:12:46;;;;;;;34.72;30.75;;;;;;;;;;5087761;28;20050;-68
2022/03/24 05:15:14;;;;;;;34.17;30.58;;;;;;;;;;5087659;28;20189;-68
2022/03/24 05:17:40;;;;;;;35.63;31.27;;;;;;;;;;5087565;28;20471;-67
2022/03/24 05:20:07;;;;;;;34.63;29.52;;;;;;;;;;5087556;28;20486;-68
2022/03/24 05:22:35;;;;;;;35.55;30.40;;;;;;;;;;5087769;28;20049;-67
2022/03/24 05:25:01;;;;;;;34.83;31.15;;;;;;;;;;5087572;28;20043;-67
2022/03/24 05:27:27;;;;;;;33.15;29.65;;;;;;;;;;5069574;28;20052;-67
2022/03/24 05:29:53;;;;;;;33.88;29.40;;;;;;;;;;5087871;28;20126;-67
2022/03/24 05:32:19;;;;;;;33.72;30.13;;;;;;;;;;5087234;28;20139;-67
2022/03/24 05:34:46;;;;;;;33.75;30.15;;;;;;;;;;5069204;28;20133;-67
2022/03/24 05:37:14;;;;;;;35.28;31.35;;;;;;;;;;5052836;28;20142;-68
2022/03/24 05:39:41;;;;;;;33.92;30.23;;;;;;;;;;5088416;28;20040;-67
2022/03/24 05:42:07;;;;;;;32.22;28.92;;;;;;;;;;5080466;28;20083;-67
2022/03/24 05:44:33;;;;;;;34.08;30.48;;;;;;;;;;5088166;28;20067;-67
2022/03/24 05:46:59;;;;;;;34.63;30.85;;;;;;;;;;5087937;28;20051;-68
2022/03/24 05:49:26;;;;;;;34.92;31.00;;;;;;;;;;5054330;28;20045;-68
2022/03/24 05:51:52;;;;;;;35.33;31.52;;;;;;;;;;5067654;28;20063;-68
2022/03/24 05:54:18;;;;;;;35.85;32.00;;;;;;;;;;5058499;28;20071;-67
2022/03/24 05:56:48;;;;;;;35.08;31.38;;;;;;;;;;5069992;28;20055;-68
2022/03/24 05:59:15;;;;;;;34.35;30.50;;;;;;;;;;5087600;28;20504;-68
2022/03/24 06:01:42;;;;;;;34.28;30.50;;;;;;;;;;5070039;28;20044;-69
2022/03/24 06:04:08;;;;;;;35.45;31.52;;;;;;;;;;5088180;28;20076;-68
2022/03/24 06:06:34;;;;;;;34.55;30.85;;;;;;;;;;5088308;28;20048;-69
2022/03/24 06:09:03;;;;;;;34.33;30.73;;;;;;;;;;5088006;28;20087;-68
2022/03/24 06:11:30;;;;;;;35.37;31.50;;;;;;;;;;5090327;28;20502;-68
2022/03/24 06:13:56;;;;;;;34.45;30.95;;;;;;;;;;5091030;28;20524;-69
2022/03/24 06:16:22;;;;;;;34.08;30.50;;;;;;;;;;5091813;28;20086;-69
2022/03/24 06:18:48;;;;;;;36.38;31.30;;;;;;;;;;5091545;28;20071;-68
2022/03/24 06:21:15;;;;;;;36.28;30.52;;;;;;;;;;5091554;28;20047;-70
2022/03/24 06:23:41;;;;;;;38.72;30.77;;;;;;;;;;5073172;28;20465;-70
2022/03/24 06:26:08;;;;;;;40.50;30.50;;;;;;;;;;5091166;28;20079;-66
2022/03/24 06:28:35;;;;;;;36.63;27.48;;;;;;;;;;5091425;28;20059;-66
2022/03/24 06:31:01;;;;;;;36.25;28.58;;;;;;;;;;5073006;28;20082;-66
2022/03/24 06:33:27;;;;;;;33.63;29.98;;;;;;;;;;5072972;28;20494;-67
2022/03/24 06:35:53;;;;;;;31.98;28.58;;;;;;;;;;5090377;28;20059;-68
2022/03/24 06:38:20;;;;;;;32.05;28.52;;;;;;;;;;5091090;28;20040;-69
2022/03/24 06:40:46;;;;;;;30.45;27.20;;;;;;;;;;5073370;28;20530;-68
2022/03/24 06:43:12;;;;;;;32.80;28.33;;;;;;;;;;5090313;28;20040;-67
2022/03/24 06:45:39;;;;;;;33.05;28.27;;;;;;;;;;5090946;28;20094;-68
2022/03/24 06:48:09;;;;;;;31.10;27.27;;;;;;;;;;5091064;28;20084;-67
2022/03/24 06:50:35;;;;;;;32.08;28.23;;;;;;;;;;5056232;28;20047;-68
2022/03/24 06:53:02;;;;;;;30.35;27.05;;;;;;;;;;5072900;28;20131;-68
2022/03/24 06:55:28;;;;;;;30.63;27.45;;;;;;;;;;5072731;28;20051;-68
2022/03/24 06:57:54;;;;;;;29.23;26.17;;;;;;;;;;5091022;28;20048;-69
2022/03/24 07:00:21;;;;;;;30.08;25.75;;;;;;;;;;5090674;28;20052;-69
2022/03/24 07:02:47;;;;;;;31.00;27.67;;;;;;;;;;5072456;28;20055;-68
2022/03/24 07:05:13;;;;;;;30.60;27.33;;;;;;;;;;5090744;28;20075;-68
2022/03/24 07:07:40;;;;;;;31.33;26.65;;;;;;;;;;5090711;28;20051;-67
2022/03/24 07:10:06;;;;;;;31.42;27.50;;;;;;;;;;5090947;28;20048;-68
2022/03/24 07:12:32;;;;;;;32.45;27.95;;;;;;;;;;5090386;28;20545;-68
2022/03/24 07:14:58;;;;;;;31.23;27.92;;;;;;;;;;5072261;28;20075;-67
2022/03/24 07:17:24;;;;;;;31.38;27.50;;;;;;;;;;5072582;28;20066;-67
2022/03/24 07:19:50;;;;;;;30.88;27.58;;;;;;;;;;5072782;28;20044;-67
2022/03/24 07:22:16;;;;;;;30.40;27.20;;;;;;;;;;5090220;28;20541;-68
2022/03/24 07:24:42;;;;;;;30.35;27.25;;;;;;;;;;5055453;28;20048;-68
2022/03/24 07:27:10;;;;;;;29.63;26.58;;;;;;;;;;5056088;28;20047;-68
2022/03/24 07:29:36;;;;;;;30.48;27.25;;;;;;;;;;5072474;28;20067;-67
2022/03/24 07:32:02;;;;;;;30.10;26.98;;;;;;;;;;5071945;28;20083;-66
2022/03/24 07:34:28;;;;;;;29.67;26.63;;;;;;;;;;5071982;28;20055;-66
2022/03/24 07:36:55;;;;;;;32.67;27.08;;;;;;;;;;5089609;28;20055;-67
2022/03/24 07:39:21;;;;;;;28.40;25.50;;;;;;;;;;5090365;28;20192;-67
2022/03/24 07:41:47;;;;;;;29.13;25.98;;;;;;;;;;5090299;28;20481;-67
2022/03/24 07:44:13;;;;;;;32.65;27.20;;;;;;;;;;5089731;28;20138;-67
2022/03/24 07:46:41;;;;;;;30.58;27.38;;;;;;;;;;5071201;28;20059;-67
2022/03/24 07:49:07;;;;;;;29.63;26.50;;;;;;;;;;5089401;28;20087;-66
2022/03/24 07:51:34;;;;;;;28.70;25.65;;;;;;;;;;5071534;28;20101;-69
2022/03/24 07:54:02;;;;;;;28.33;25.38;;;;;;;;;;5054540;28;20127;-67
2022/03/24 07:56:29;;;;;;;28.38;25.48;;;;;;;;;;5071057;28;20108;-67
2022/03/24 07:58:56;;;;;;;29.20;24.92;;;;;;;;;;5088574;28;20051;-66
2022/03/24 08:01:29;;;;;;;30.00;25.85;;;;;;;;;;5089287;28;20044;-68
2022/03/24 08:03:56;;;;;;;28.42;25.40;;;;;;;;;;5089270;28;20060;-68
2022/03/24 08:06:22;;;;;;;28.15;24.88;;;;;;;;;;5089034;28;20417;-67
2022/03/24 08:08:48;;;;;;;31.90;25.38;;;;;;;;;;5089207;28;20087;-69
2022/03/24 08:11:14;;;;;;;31.38;24.80;;;;;;;;;;5070822;28;20048;-69
2022/03/24 08:13:40;;;;;;;27.80;21.02;;;;;;;;;;5070440;28;20055;-70
2022/03/24 08:16:07;;;;;;;28.25;20.27;;;;;;;;;;5088408;28;20142;-70
2022/03/24 08:18:33;;;;;;;19.65;17.63;;;;;;;;;;5070758;28;20048;-74
2022/03/24 08:20:59;;;;;;;18.55;16.65;;;;;;;;;;5053382;28;20135;-75
2022/03/24 08:23:25;;;;;;;20.08;16.20;;;;;;;;;;5071015;28;20040;-74
2022/03/24 08:25:51;;;;;;;17.60;15.80;;;;;;;;;;5088426;28;20048;-70
2022/03/24 08:28:18;;;;;;;18.17;15.60;;;;;;;;;;5088139;28;20079;-73
2022/03/24 08:30:47;;;;;;;17.75;15.68;;;;;;;;;;5087128;28;20069;-75
2022/03/24 08:33:13;;;;;;;19.00;16.20;;;;;;;;;;5084087;28;20036;-75
2022/03/24 08:35:40;;;;;;;17.10;15.05;;;;;;;;;;5087282;28;20109;-75
2022/03/24 08:38:07;;;;;;;20.50;16.13;;;;;;;;;;5087502;28;20048;-72
2022/03/24 08:40:33;;;;;;;17.45;15.52;;;;;;;;;;5066486;28;20048;-72
2022/03/24 08:42:59;;;;;;;17.83;14.70;;;;;;;;;;5068507;28;20068;-71
2022/03/24 08:45:25;;;;;;;26.77;16.05;;;;;;;;;;5088122;28;20043;-72
2022/03/24 08:47:53;;;;;;;19.23;15.60;;;;;;;;;;5088885;28;20100;-72
2022/03/24 08:50:20;;;;;;;21.42;15.48;;;;;;;;;;5088528;28;20063;-73
2022/03/24 08:52:46;;;;;;;17.75;15.38;;;;;;;;;;5088618;28;20051;-73
2022/03/24 08:55:15;;;;;;;23.48;14.43;;;;;;;;;;5053903;28;20043;-73
2022/03/24 08:57:41;;;;;;;;;;;;;;;;;;5089429;28;20072;-73
2022/03/24 09:00:12;;;;;;;16.42;13.45;;;;;;;;;;5070272;28;19920;-73
2022/03/24 09:02:39;;;;;;;18.85;13.88;;;;;;;;;;5070192;28;20093;-73
2022/03/24 09:05:05;;;;;;;17.35;14.50;;;;;;;;;;5088154;28;20414;-73
2022/03/24 09:07:31;;;;;;;16.95;14.75;;;;;;;;;;5088764;28;20048;-73
2022/03/24 09:09:57;;;;;;;18.63;14.30;;;;;;;;;;5088478;28;20096;-73
2022/03/24 09:12:24;;;;;;;17.83;14.02;;;;;;;;;;5088549;28;20135;-73
2022/03/24 09:14:50;;;;;;;15.90;14.20;;;;;;;;;;5087965;28;20051;-73
2022/03/24 09:17:16;;;;;;;16.85;14.18;;;;;;;;;;5088703;28;20134;-73
2022/03/24 09:19:42;;;;;;;15.85;13.23;;;;;;;;;;5088786;28;20090;-73
2022/03/24 09:22:09;;;;;;;14.93;13.27;;;;;;;;;;5088703;28;20592;-71
2022/03/24 09:24:36;;;;;;;15.15;12.93;;;;;;;;;;5053148;28;20083;-73
2022/03/24 09:27:03;;;;;;;16.40;13.88;;;;;;;;;;5069836;28;20044;-72
2022/03/24 09:29:30;;;;;;;15.68;13.40;;;;;;;;;;5053222;28;20097;-72
2022/03/24 09:31:56;;;;;;;14.95;13.35;;;;;;;;;;5087219;28;20050;-72
2022/03/24 09:34:22;;;;;;;15.98;13.50;;;;;;;;;;5070509;28;20063;-72
2022/03/24 09:36:48;;;;;;;14.20;12.68;;;;;;;;;;5088329;28;20097;-69
2022/03/24 09:39:15;;;;;;;16.35;13.27;;;;;;;;;;5088110;28;20481;-68
2022/03/24 09:41:47;;;;;;;15.60;13.48;;;;;;;;;;5070403;28;20131;-71
2022/03/24 09:44:13;;;;;;;14.52;12.95;;;;;;;;;;5070018;28;20052;-69
2022/03/24 09:46:41;;;;;;;16.02;14.07;;;;;;;;;;5091083;28;20055;-68
2022/03/24 09:49:08;;;;;;;16.00;13.45;;;;;;;;;;5092325;28;20052;-68
2022/03/24 09:51:34;;;;;;;15.05;12.88;;;;;;;;;;5074095;28;20040;-71
2022/03/24 09:54:01;;;;;;;15.52;12.65;;;;;;;;;;5069786;28;20055;-70
2022/03/24 09:56:27;;;;;;;15.25;13.30;;;;;;;;;;5091699;28;20062;-70
2022/03/24 09:58:53;;;;;;;17.90;13.10;;;;;;;;;;5072967;28;20044;-71
2022/03/24 10:01:20;;;;;;;17.60;12.25;;;;;;;;;;5091449;28;20058;-69
2022/03/24 10:04:02;;;;;;;18.40;13.63;;;;;;;;;;5072739;28;20097;-71
2022/03/24 10:06:28;;;;;;;18.00;13.38;;;;;;;;;;5073080;28;20414;-72
2022/03/24 10:08:54;;;;;;;17.70;13.27;;;;;;;;;;5073308;28;20402;-70
2022/03/24 10:11:24;;;;;;;17.08;13.55;;;;;;;;;;5091673;28;20046;-70
2022/03/24 10:13:51;;;;;;;;;;;;;;;;;;5091531;28;20131;-73
2022/03/24 10:16:39;;;;;;;20.13;12.88;;;;;;;;;;5071487;28;19969;-73
2022/03/24 10:19:06;;;;;;;19.52;13.10;;;;;;;;;;5089599;28;20067;-74
2022/03/24 10:21:33;;;;;;;19.25;13.18;;;;;;;;;;5071063;28;20044;-71
2022/03/24 10:24:03;;;;;;;17.73;13.23;;;;;;;;;;5073208;28;20052;-73
2022/03/24 10:26:45;;;;;;;19.02;12.63;;;;;;;;;;5090753;28;20047;-73
2022/03/24 10:29:12;;;;;;;18.35;13.88;;;;;;;;;;5073401;28;20409;-74
2022/03/24 10:31:40;;;;;;;18.27;13.98;;;;;;;;;;5071983;28;20089;-72
2022/03/24 10:34:06;;;;;;;17.90;13.18;;;;;;;;;;5089909;28;20748;-75
2022/03/24 10:36:32;;;;;;;15.45;13.13;;;;;;;;;;5072393;28;20056;-75
2022/03/24 10:39:05;;;;;;;17.40;13.52;;;;;;;;;;5072868;28;20097;-74
2022/03/24 10:41:32;;;;;;;18.52;13.10;;;;;;;;;;5090421;28;20126;-75
2022/03/24 10:44:09;;;;;;;20.10;13.25;;;;;;;;;;5091015;28;20048;-74
2022/03/24 10:46:36;;;;;;;18.13;12.80;;;;;;;;;;5091216;28;20538;-76
2022/03/24 10:49:16;;;;;;;16.92;12.75;;;;;;;;;;5071922;28;20139;-74
2022/03/24 10:51:44;;;;;;;19.38;13.98;;;;;;;;;;5072496;28;20092;-73
2022/03/24 10:54:13;;;;;;;16.52;13.00;;;;;;;;;;5070873;28;20049;-77
2022/03/24 10:56:40;;;;;;;16.10;13.23;;;;;;;;;;5068391;28;20044;-76
2022/03/24 10:59:06;;;;;;;14.98;12.68;;;;;;;;;;5070206;28;20498;-73
2022/03/24 11:01:33;;;;;;;15.15;12.80;;;;;;;;;;5068672;28;20044;-76
2022/03/24 11:03:59;;;;;;;15.70;13.48;;;;;;;;;;5069026;28;20530;-76
2022/03/24 11:06:27;;;;;;;16.48;13.60;;;;;;;;;;5070420;28;20059;-76
2022/03/24 11:09:00;;;;;;;19.20;13.27;;;;;;;;;;5088880;28;20055;-76
2022/03/24 11:11:27;;;;;;;17.67;14.70;;;;;;;;;;5072949;28;20427;-75
2022/03/24 11:13:58;;;;;;;16.45;14.10;;;;;;;;;;5071876;28;20066;-74
2022/03/24 11:16:26;;;;;;;16.00;13.98;;;;;;;;;;5090020;28;20611;-75
2022/03/24 11:18:52;;;;;;;17.38;13.52;;;;;;;;;;5072308;28;20040;-74
2022/03/24 11:21:28;;;;;;;16.45;13.73;;;;;;;;;;5090540;28;20051;-74
2022/03/24 11:23:55;;;;;;;17.35;13.70;;;;;;;;;;5090224;28;20048;-74
2022/03/24 11:26:22;;;;;;;18.25;13.18;;;;;;;;;;5055743;28;20044;-75
2022/03/24 11:28:50;;;;;;;17.58;13.32;;;;;;;;;;5090025;28;20048;-74
2022/03/24 11:31:16;;;;;;;14.68;13.15;;;;;;;;;;5090395;28;20094;-75
2022/03/24 11:33:45;;;;;;;18.13;14.25;;;;;;;;;;5071493;28;20142;-76
2022/03/24 11:36:12;;;;;;;16.83;13.27;;;;;;;;;;5090299;28;20086;-74
2022/03/24 11:38:39;;;;;;;15.95;13.43;;;;;;;;;;5090023;28;20044;-72
2022/03/24 11:41:07;;;;;;;16.00;13.57;;;;;;;;;;5071559;28;20046;-70
2022/03/24 11:43:35;;;;;;;15.63;13.32;;;;;;;;;;5071703;28;20622;-73
2022/03/24 11:46:07;;;;;;;16.13;12.98;;;;;;;;;;5089807;28;20127;-71
2022/03/24 11:48:38;;;;;;;14.73;13.02;;;;;;;;;;5071582;28;20071;-74
2022/03/24 11:51:05;;;;;;;15.65;13.05;;;;;;;;;;5089713;28;20127;-75
2022/03/24 11:53:31;;;;;;;17.15;14.23;;;;;;;;;;5071573;28;20486;-73
2022/03/24 11:56:03;;;;;;;15.07;13.07;;;;;;;;;;5071386;28;20165;-72
2022/03/24 11:58:30;;;;;;;16.75;13.63;;;;;;;;;;5071901;28;20051;-73
2022/03/24 12:00:56;;;;;;;15.63;13.57;;;;;;;;;;5071402;28;20044;-73
2022/03/24 12:03:41;;;;;;;17.08;13.65;;;;;;;;;;5071273;28;20444;-72
2022/03/24 12:06:08;;;;;;;18.17;13.13;;;;;;;;;;5071677;28;20402;-73
2022/03/24 12:08:44;;;;;;;15.13;13.35;;;;;;;;;;5090296;28;20054;-73
2022/03/24 12:11:29;;;;;;;16.00;13.30;;;;;;;;;;5089801;28;20550;-73
2022/03/24 12:13:55;;;;;;;16.17;13.32;;;;;;;;;;5090005;28;20047;-71
2022/03/24 12:16:24;;;;;;;16.50;13.82;;;;;;;;;;5089028;28;20417;-71
2022/03/24 12:18:50;;;;;;;19.20;13.63;;;;;;;;;;5071026;28;20379;-72
2022/03/24 12:21:30;;;;;;;18.98;13.77;;;;;;;;;;5071371;28;20054;-72
2022/03/24 12:24:03;;;;;;;15.70;13.32;;;;;;;;;;5089448;28;20040;-73
2022/03/24 12:26:36;;;;;;;17.23;13.70;;;;;;;;;;5054318;28;20130;-72
2022/03/24 12:29:22;;;;;;;17.27;13.15;;;;;;;;;;5071175;28;20559;-74
2022/03/24 12:32:01;;;;;;;16.13;13.50;;;;;;;;;;5088646;28;20040;-74
2022/03/24 12:34:31;;;;;;;17.73;13.63;;;;;;;;;;5088617;28;20063;-71
2022/03/24 12:36:59;;;;;;;15.45;13.10;;;;;;;;;;5071024;28;20047;-69
2022/03/24 12:39:44;;;;;;;15.80;13.48;;;;;;;;;;5071075;28;20075;-73
2022/03/24 12:42:12;;;;;;;15.60;12.70;;;;;;;;;;5088801;28;20551;-70
2022/03/24 12:44:50;;;;;;;13.88;12.15;;;;;;;;;;5070679;28;20518;-70
2022/03/24 12:47:30;;;;;;;15.48;13.23;;;;;;;;;;5087207;28;20086;-72
2022/03/24 12:49:57;;;;;;;15.75;12.52;;;;;;;;;;5070015;28;20054;-72
2022/03/24 12:52:27;;;;;;;15.23;13.10;;;;;;;;;;5070051;28;20481;-70
2022/03/24 12:54:55;;;;;;;15.60;12.93;;;;;;;;;;5088718;28;20047;-70
2022/03/24 12:57:26;;;;;;;13.73;11.70;;;;;;;;;;5052626;28;20047;-74
2022/03/24 12:59:53;;;;;;;14.98;12.63;;;;;;;;;;5088180;28;20406;-74
2022/03/24 13:02:19;;;;;;;14.30;12.35;;;;;;;;;;5070026;28;20044;-74
2022/03/24 13:04:50;;;;;;;14.18;11.00;;;;;;;;;;5069939;28;20225;-75
2022/03/24 13:07:21;;;;;;;15.30;12.18;;;;;;;;;;5088306;28;20052;-73
2022/03/24 13:10:02;;;;;;;14.82;12.85;;;;;;;;;;5069777;28;20052;-76
2022/03/24 13:12:28;;;;;;;15.07;13.05;;;;;;;;;;5088677;28;20044;-75
2022/03/24 13:14:54;;;;;;;13.77;11.48;;;;;;;;;;5053300;28;20131;-74
2022/03/24 13:17:20;;;;;;;14.48;12.23;;;;;;;;;;5087595;28;20044;-72
2022/03/24 13:19:50;;;;;;;14.23;12.30;;;;;;;;;;5088381;28;20043;-73
2022/03/24 13:22:19;;;;;;;15.38;11.98;;;;;;;;;;5074561;28;20454;-74
2022/03/24 13:24:56;;;;;;;12.30;10.93;;;;;;;;;;5074307;28;20164;-74
2022/03/24 13:27:22;;;;;;;13.35;11.90;;;;;;;;;;5091834;28;20123;-73
2022/03/24 13:29:49;;;;;;;14.15;12.13;;;;;;;;;;5091867;28;20052;-72
2022/03/24 13:32:21;;;;;;;16.73;12.40;;;;;;;;;;5074089;28;20441;-74
2022/03/24 13:34:51;;;;;;;13.80;11.05;;;;;;;;;;5073433;28;20549;-73
2022/03/24 13:37:19;;;;;;;12.93;11.52;;;;;;;;;;5091863;28;20193;-73
2022/03/24 13:39:46;;;;;;;12.50;10.98;;;;;;;;;;5074371;28;20374;-72
2022/03/24 13:42:13;;;;;;;12.82;10.80;;;;;;;;;;5073735;28;20484;-73
2022/03/24 13:44:39;;;;;;;12.55;11.25;;;;;;;;;;5073348;28;20377;-73
2022/03/24 13:47:06;;;;;;;14.35;11.27;;;;;;;;;;5091455;28;20410;-74
2022/03/24 13:49:32;;;;;;;14.63;11.98;;;;;;;;;;5057246;28;20036;-73
2022/03/24 13:51:58;;;;;;;13.00;11.43;;;;;;;;;;5091725;28;20048;-73
2022/03/24 13:54:24;;;;;;;16.52;11.70;;;;;;;;;;5091903;28;20352;-73
2022/03/24 13:56:52;;;;;;;12.50;11.20;;;;;;;;;;5073115;28;20055;-71
2022/03/24 13:59:25;;;;;;;13.30;11.23;;;;;;;;;;5091313;28;20052;-72
2022/03/24 14:01:55;;;;;;;13.93;12.32;;;;;;;;;;5091295;28;20418;-71
2022/03/24 14:04:21;;;;;;;14.57;11.93;;;;;;;;;;5091307;28;20186;-72
2022/03/24 14:07:09;;;;;;;13.70;11.75;;;;;;;;;;5090827;28;20040;-71
2022/03/24 14:09:35;;;;;;;13.73;11.57;;;;;;;;;;5072384;28;20105;-72
2022/03/24 14:12:03;;;;;;;15.50;11.82;;;;;;;;;;5072832;28;20048;-72
2022/03/24 14:14:29;;;;;;;17.17;13.32;;;;;;;;;;5072071;28;20048;-72
2022/03/24 14:16:55;;;;;;;14.55;12.98;;;;;;;;;;5090811;28;20052;-72
2022/03/24 14:19:26;;;;;;;13.77;11.98;;;;;;;;;;5073062;28;20398;-73
2022/03/24 14:22:06;;;;;;;14.13;12.63;;;;;;;;;;5055412;28;20519;-72